Time;durP1;ratioP1;P1;durP2;ratioP2;P2;SDS_P1;SDS_P2;PMS_P1;PMS_P2;Temp;Humidity;BMP_temperature;BMP_pressure;BME280_temperature;BME280_humidity;BME280_pressure;Samples;Min_cycle;Max_cycle;Signal;HPM_P1;HPM_P2
2023/09/30 00:01:34;;;;;;;15.02;7.90;;;;;;;18.58;52.15;99645.94;4478678;32;32983;-85
2023/09/30 00:04:03;;;;;;;10.40;7.35;;;;;;;18.54;51.93;99650.34;4490882;31;34573;-85
2023/09/30 00:06:31;;;;;;;12.32;8.82;;;;;;;18.42;52.11;99650.50;4467421;32;35081;-84
2023/09/30 00:08:58;;;;;;;10.82;7.95;;;;;;;18.45;52.11;99648.72;4492992;32;34196;-85
2023/09/30 00:11:26;;;;;;;14.48;7.75;;;;;;;18.40;52.22;99650.50;4488726;32;33588;-84
2023/09/30 00:13:54;;;;;;;14.55;7.32;;;;;;;18.44;52.19;99643.44;4493211;32;33414;-85
2023/09/30 00:16:21;;;;;;;14.75;7.50;;;;;;;18.41;52.20;99640.84;4490138;32;33578;-85
2023/09/30 00:18:49;;;;;;;12.50;8.10;;;;;;;18.41;52.19;99647.00;4483591;32;33760;-86
2023/09/30 00:21:17;;;;;;;14.55;7.68;;;;;;;18.40;52.27;99641.75;4482680;31;34024;-84
2023/09/30 00:23:44;;;;;;;12.77;8.13;;;;;;;18.36;52.32;99642.69;4493149;31;33535;-86
2023/09/30 00:26:14;;;;;;;10.18;7.37;;;;;;;18.26;52.57;99641.94;4492972;31;34169;-86
2023/09/30 00:28:42;;;;;;;10.52;7.78;;;;;;;18.23;52.59;99647.19;4492949;31;34467;-86
2023/09/30 00:31:10;;;;;;;12.68;7.78;;;;;;;18.30;52.37;99641.00;4484136;32;33440;-85
2023/09/30 00:33:38;;;;;;;12.70;7.90;;;;;;;18.33;52.23;99635.69;4493599;32;33787;-83
2023/09/30 00:36:10;;;;;;;10.95;8.13;;;;;;;18.26;52.43;99639.31;4485909;32;34102;-84
2023/09/30 00:38:39;;;;;;;10.98;7.30;;;;;;;18.26;52.51;99628.81;4489928;31;33987;-85
2023/09/30 00:41:07;;;;;;;11.32;7.82;;;;;;;18.25;52.76;99632.28;4473261;32;33058;-85
2023/09/30 00:43:34;;;;;;;11.70;7.07;;;;;;;18.26;52.89;99625.28;4464315;32;33740;-85
2023/09/30 00:46:07;;;;;;;11.95;7.80;;;;;;;18.26;52.86;99622.66;4463832;32;34531;-86
2023/09/30 00:48:35;;;;;;;14.32;7.22;;;;;;;18.15;53.16;99621.03;4462517;32;33824;-86
2023/09/30 00:51:03;;;;;;;10.48;6.90;;;;;;;18.25;53.14;99619.16;4451631;32;32736;-85
2023/09/30 00:53:31;;;;;;;11.30;7.50;;;;;;;18.27;53.27;99616.53;4470917;32;35017;-85
2023/09/30 00:55:58;;;;;;;12.20;7.68;;;;;;;18.27;53.25;99625.28;4472075;32;34742;-85
2023/09/30 00:58:28;;;;;;;15.40;7.70;;;;;;;18.11;53.58;99628.97;4448314;32;33167;-86
2023/09/30 01:00:57;;;;;;;14.43;6.95;;;;;;;18.14;53.48;99626.28;4454416;32;33968;-84
2023/09/30 01:03:25;;;;;;;13.32;7.40;;;;;;;18.19;53.44;99617.50;4446689;32;34044;-85
2023/09/30 01:05:53;;;;;;;13.05;7.40;;;;;;;18.16;53.48;99621.91;4465284;32;34798;-85
2023/09/30 01:08:21;;;;;;;10.60;7.62;;;;;;;18.10;53.69;99627.22;4456244;32;34333;-84
2023/09/30 01:10:50;;;;;;;11.38;7.20;;;;;;;18.15;53.68;99625.44;4450395;32;33524;-85
2023/09/30 01:13:18;;;;;;;12.00;7.43;;;;;;;18.13;53.75;99619.31;4452723;32;32757;-86
2023/09/30 01:15:47;;;;;;;11.70;7.60;;;;;;;18.05;53.99;99624.62;4454174;32;35008;-86
2023/09/30 01:18:14;;;;;;;9.90;6.60;;;;;;;18.05;53.88;99619.37;4462878;32;34525;-84
2023/09/30 01:20:42;;;;;;;13.45;7.80;;;;;;;17.95;54.09;99623.84;4452842;32;33269;-85
2023/09/30 01:23:11;;;;;;;10.77;8.38;;;;;;;18.05;54.00;99629.03;4463843;32;33540;-84
2023/09/30 01:25:39;;;;;;;13.00;8.05;;;;;;;18.03;54.11;99625.53;4457831;32;33591;-84
2023/09/30 01:28:10;;;;;;;12.60;8.35;;;;;;;17.95;54.31;99626.47;4457165;32;33515;-86
2023/09/30 01:30:37;;;;;;;12.10;7.70;;;;;;;18.01;54.23;99627.31;4454643;32;33442;-86
2023/09/30 01:33:06;;;;;;;16.25;8.05;;;;;;;18.13;53.99;99628.03;4452589;32;33899;-84
2023/09/30 01:35:34;;;;;;;11.95;8.07;;;;;;;18.13;54.15;99630.66;4459754;32;33601;-85
2023/09/30 01:38:02;;;;;;;14.13;8.60;;;;;;;18.10;54.18;99627.22;4450984;32;33304;-85
2023/09/30 01:40:29;;;;;;;12.30;9.25;;;;;;;18.01;54.25;99622.06;4451418;32;33541;-84
2023/09/30 01:42:57;;;;;;;11.63;7.97;;;;;;;17.90;54.48;99620.41;4451504;32;33877;-84
2023/09/30 01:45:24;;;;;;;15.20;8.10;;;;;;;17.95;54.40;99618.59;4453128;32;34272;-85
2023/09/30 01:47:52;;;;;;;11.77;7.53;;;;;;;17.94;54.65;99626.50;4450388;32;35412;-85
2023/09/30 01:50:20;;;;;;;15.85;8.38;;;;;;;17.98;54.80;99623.81;4454066;32;34152;-85
2023/09/30 01:52:48;;;;;;;12.43;8.15;;;;;;;18.02;54.75;99618.56;4458326;32;34629;-86
2023/09/30 01:55:16;;;;;;;9.90;7.47;;;;;;;17.97;54.84;99621.22;4460036;32;34227;-85
2023/09/30 01:57:44;;;;;;;10.30;7.35;;;;;;;17.87;55.06;99611.69;4452231;32;33931;-84
2023/09/30 02:00:12;;;;;;;12.75;7.97;;;;;;;17.84;55.16;99615.25;4458212;32;34237;-86
2023/09/30 02:02:42;;;;;;;12.88;7.87;;;;;;;17.84;55.48;99616.97;4453929;32;33575;-85
2023/09/30 02:05:09;;;;;;;10.85;7.85;;;;;;;17.69;55.76;99616.22;4452907;32;34095;-83
2023/09/30 02:07:37;;;;;;;13.45;7.70;;;;;;;17.70;55.91;99617.09;4462077;32;33939;-86
2023/09/30 02:10:05;;;;;;;12.13;7.60;;;;;;;17.75;55.72;99615.31;4460384;32;33383;-85
2023/09/30 02:12:33;;;;;;;13.75;7.75;;;;;;;17.82;55.50;99614.38;4466634;32;33603;-86
2023/09/30 02:15:03;;;;;;;11.57;7.65;;;;;;;17.87;55.30;99615.19;4464489;32;33862;-86
2023/09/30 02:17:31;;;;;;;11.07;7.93;;;;;;;17.82;55.43;99617.00;4452781;32;33325;-87
2023/09/30 02:19:58;;;;;;;12.63;7.40;;;;;;;17.86;55.42;99613.47;4459737;32;33142;-87
2023/09/30 02:22:28;;;;;;;11.68;7.18;;;;;;;17.83;55.50;99617.88;4463616;32;33919;-87
2023/09/30 02:24:55;;;;;;;9.90;8.10;;;;;;;17.83;55.50;99613.47;4467374;32;35125;-87
2023/09/30 02:27:23;;;;;;;11.50;8.25;;;;;;;17.88;55.18;99619.56;4467753;32;33462;-88
2023/09/30 02:29:50;;;;;;;13.45;7.50;;;;;;;17.73;55.55;99615.31;4455143;32;34248;-87
2023/09/30 02:32:18;;;;;;;10.93;7.45;;;;;;;17.73;55.46;99614.44;4456252;32;33936;-85
2023/09/30 02:34:46;;;;;;;12.27;7.40;;;;;;;17.77;55.29;99608.31;4458840;32;34236;-85
2023/09/30 02:37:14;;;;;;;12.88;7.25;;;;;;;17.71;55.53;99603.09;4463138;32;33814;-84
2023/09/30 02:39:43;;;;;;;14.02;7.90;;;;;;;17.71;55.50;99608.31;4456090;32;33350;-85
2023/09/30 02:42:10;;;;;;;13.35;8.27;;;;;;;17.65;55.73;99605.75;4451929;32;34685;-85
2023/09/30 02:44:38;;;;;;;14.80;8.05;;;;;;;17.54;56.13;99602.34;4453371;32;34208;-85
2023/09/30 02:47:05;;;;;;;13.85;7.93;;;;;;;17.50;56.46;99601.50;4467219;32;33713;-85
2023/09/30 02:49:33;;;;;;;12.82;8.68;;;;;;;17.56;56.17;99603.22;4462160;32;33814;-84
2023/09/30 02:52:01;;;;;;;11.60;7.70;;;;;;;17.56;56.01;99603.22;4456521;32;33547;-87
2023/09/30 02:54:30;;;;;;;14.43;7.90;;;;;;;17.59;55.84;99603.19;4452660;32;33715;-86
2023/09/30 02:56:58;;;;;;;10.82;7.75;;;;;;;17.61;55.72;99602.28;4467197;32;34040;-87
2023/09/30 02:59:27;;;;;;;11.77;7.60;;;;;;;17.52;55.88;99608.47;4454809;32;34298;-88
2023/09/30 03:01:55;;;;;;;12.15;7.22;;;;;;;17.47;55.90;99604.19;4458635;32;33783;-86
2023/09/30 03:04:25;;;;;;;10.05;7.12;;;;;;;17.54;55.69;99605.88;4461522;32;33710;-85
2023/09/30 03:06:56;;;;;;;14.70;7.82;;;;;;;17.48;55.66;99609.41;4455667;32;33205;-87
2023/09/30 03:09:23;;;;;;;13.90;7.87;;;;;;;17.51;55.49;99613.75;4459554;32;34006;-84
2023/09/30 03:11:51;;;;;;;11.77;7.68;;;;;;;17.56;55.38;99614.56;4452530;32;34804;-84
2023/09/30 03:14:18;;;;;;;13.38;7.97;;;;;;;17.56;55.42;99608.47;4455866;32;34137;-84
2023/09/30 03:16:46;;;;;;;14.43;7.47;;;;;;;17.59;55.26;99611.06;4454294;32;34414;-84
2023/09/30 03:19:16;;;;;;;13.20;7.90;;;;;;;17.56;55.60;99605.84;4460356;32;33607;-83
2023/09/30 03:21:44;;;;;;;12.93;7.43;;;;;;;17.49;55.90;99608.50;4452714;32;34834;-84
2023/09/30 03:24:12;;;;;;;12.70;8.07;;;;;;;17.43;56.30;99613.81;4456656;32;36688;-84
2023/09/30 03:26:41;;;;;;;13.27;8.15;;;;;;;17.41;56.23;99618.19;4450158;32;34627;-85
2023/09/30 03:29:09;;;;;;;11.32;7.75;;;;;;;17.46;56.05;99623.38;4455536;32;32142;-84
2023/09/30 03:31:37;;;;;;;10.40;7.93;;;;;;;17.56;55.79;99618.94;4460917;32;34778;-84
2023/09/30 03:34:05;;;;;;;14.13;8.05;;;;;;;17.42;56.14;99617.28;4453266;32;34488;-84
2023/09/30 03:36:33;;;;;;;15.35;7.93;;;;;;;17.48;55.90;99616.38;4450183;32;33364;-85
2023/09/30 03:39:06;;;;;;;10.85;7.60;;;;;;;17.45;55.63;99609.41;4453871;32;34741;-85
2023/09/30 03:41:36;;;;;;;15.70;8.57;;;;;;;17.37;56.02;99613.84;4464251;32;33551;-85
2023/09/30 03:44:04;;;;;;;11.27;8.00;;;;;;;17.16;56.70;99619.22;4451657;32;33868;-84
2023/09/30 03:46:32;;;;;;;13.73;8.88;;;;;;;17.23;56.56;99611.31;4463778;32;33711;-84
2023/09/30 03:49:00;;;;;;;12.95;8.27;;;;;;;17.30;56.59;99609.53;4454015;32;33362;-84
2023/09/30 03:51:27;;;;;;;11.90;8.20;;;;;;;17.32;56.62;99618.25;4455128;32;34408;-85
2023/09/30 03:53:55;;;;;;;15.75;8.90;;;;;;;17.29;56.64;99626.16;4451027;32;34102;-84
2023/09/30 03:56:23;;;;;;;15.15;8.27;;;;;;;17.17;56.89;99615.75;4455873;32;33978;-85
2023/09/30 03:58:52;;;;;;;11.07;7.57;;;;;;;16.95;57.98;99615.00;4456735;32;32397;-85
2023/09/30 04:01:20;;;;;;;11.57;8.23;;;;;;;17.10;57.40;99619.28;4457203;32;34664;-85
2023/09/30 04:03:48;;;;;;;13.55;8.43;;;;;;;17.16;57.17;99620.13;4459977;32;34902;-84
2023/09/30 04:06:15;;;;;;;10.30;7.85;;;;;;;17.19;56.86;99622.69;4451962;32;34786;-86
2023/09/30 04:08:43;;;;;;;11.68;7.53;;;;;;;17.16;56.86;99628.00;4455871;32;33474;-85
2023/09/30 04:11:17;;;;;;;12.43;7.53;;;;;;;17.23;56.72;99613.06;4462588;32;34015;-86
2023/09/30 04:13:45;;;;;;;13.40;8.05;;;;;;;17.20;56.86;99616.59;4452985;32;33847;-86
2023/09/30 04:16:13;;;;;;;10.80;8.07;;;;;;;17.18;56.98;99620.09;4455048;32;34584;-83
2023/09/30 04:18:40;;;;;;;11.65;7.22;;;;;;;17.10;57.24;99616.69;4453346;32;34228;-83
2023/09/30 04:21:08;;;;;;;11.52;8.25;;;;;;;17.07;57.30;99611.44;4451997;32;33946;-86
2023/09/30 04:23:36;;;;;;;10.73;8.40;;;;;;;17.00;57.40;99608.84;4452881;32;34720;-85
2023/09/30 04:26:05;;;;;;;12.88;8.15;;;;;;;17.14;57.04;99611.41;4451710;32;34709;-84
2023/09/30 04:28:34;;;;;;;14.90;7.93;;;;;;;17.00;57.41;99614.09;4457309;32;33480;-85
2023/09/30 04:31:03;;;;;;;11.02;8.50;;;;;;;17.05;57.35;99615.81;4454559;32;34913;-84
2023/09/30 04:33:30;;;;;;;14.35;7.68;;;;;;;17.14;56.98;99621.00;4458741;32;34331;-85
2023/09/30 04:35:58;;;;;;;10.95;8.05;;;;;;;17.22;56.56;99622.69;4458195;32;33531;-85
2023/09/30 04:38:26;;;;;;;11.23;7.68;;;;;;;17.08;56.96;99621.91;4460131;32;32950;-84
2023/09/30 04:40:54;;;;;;;13.98;8.80;;;;;;;17.15;56.87;99622.75;4472296;32;33777;-85
2023/09/30 04:43:21;;;;;;;14.52;7.82;;;;;;;17.17;56.83;99627.09;4451237;32;33839;-85
2023/09/30 04:45:52;;;;;;;13.98;7.47;;;;;;;17.18;56.69;99627.97;4456446;32;34402;-86
2023/09/30 04:48:22;;;;;;;10.73;7.65;;;;;;;17.16;56.80;99624.47;4452542;32;33235;-82
2023/09/30 04:50:51;;;;;;;11.02;7.70;;;;;;;17.22;56.58;99620.06;4464928;32;34778;-83
2023/09/30 04:53:18;;;;;;;10.73;7.18;;;;;;;17.25;56.39;99625.28;4451411;32;34181;-86
2023/09/30 04:55:49;;;;;;;10.82;7.72;;;;;;;17.18;56.77;99628.84;4461584;32;33812;-84
2023/09/30 04:58:17;;;;;;;11.07;7.60;;;;;;;17.07;57.27;99629.78;4465616;32;33372;-85
2023/09/30 05:00:44;;;;;;;11.77;8.10;;;;;;;17.10;57.39;99632.38;4453463;32;34678;-85
2023/09/30 05:03:12;;;;;;;10.00;7.37;;;;;;;17.21;56.93;99641.06;4455412;32;33920;-85
2023/09/30 05:05:41;;;;;;;14.70;7.53;;;;;;;17.06;57.46;99633.28;4458960;32;33788;-86
2023/09/30 05:08:11;;;;;;;10.88;7.72;;;;;;;17.13;57.35;99635.00;4450653;32;33557;-86
2023/09/30 05:10:39;;;;;;;9.57;7.50;;;;;;;17.37;56.65;99634.81;4460079;32;33941;-86
2023/09/30 05:13:07;;;;;;;11.27;7.50;;;;;;;17.36;56.88;99640.94;4456387;32;34579;-86
2023/09/30 05:15:35;;;;;;;11.93;8.43;;;;;;;17.51;56.93;99648.69;4452568;32;34584;-83
2023/09/30 05:18:04;;;;;;;10.20;7.50;;;;;;;17.59;57.18;99653.00;4459562;32;33654;-86
2023/09/30 05:20:32;;;;;;;8.68;7.47;;;;;;;17.63;57.25;99646.84;4460139;32;34119;-85
2023/09/30 05:23:00;;;;;;;12.30;7.25;;;;;;;17.72;57.20;99646.78;4462241;32;34076;-86
2023/09/30 05:25:27;;;;;;;11.73;8.07;;;;;;;17.83;57.07;99649.34;4462427;32;33443;-85
2023/09/30 05:27:56;;;;;;;12.73;7.45;;;;;;;17.82;57.50;99645.84;4454837;32;33129;-85
2023/09/30 05:30:24;;;;;;;10.77;7.25;;;;;;;18.04;57.38;99646.53;4454533;32;34825;-86
2023/09/30 05:32:52;;;;;;;14.50;6.97;;;;;;;18.22;56.72;99653.31;4461391;32;34194;-83
2023/09/30 05:35:22;;;;;;;11.82;8.07;;;;;;;18.19;56.86;99649.00;4461015;32;33789;-85
2023/09/30 05:37:52;;;;;;;12.50;7.00;;;;;;;18.18;57.41;99652.50;4456779;32;33424;-85
2023/09/30 05:40:26;;;;;;;12.10;7.15;;;;;;;18.24;57.35;99655.03;4459354;32;34672;-85
2023/09/30 05:42:57;;;;;;;9.38;7.07;;;;;;;18.39;57.23;99651.37;4453204;32;35064;-84
2023/09/30 05:45:26;;;;;;;11.27;7.57;;;;;;;18.47;57.25;99649.53;4457854;32;34566;-86
2023/09/30 05:47:56;;;;;;;10.30;7.80;;;;;;;18.56;57.83;99652.94;4454794;32;34108;-86
2023/09/30 05:50:24;;;;;;;9.38;6.57;;;;;;;18.59;57.69;99648.53;4453312;32;32182;-84
2023/09/30 05:52:54;;;;;;;9.20;7.28;;;;;;;18.62;58.35;99642.37;4448126;32;34475;-84
2023/09/30 05:55:25;;;;;;;8.35;6.85;;;;;;;18.89;57.50;99651.69;4464890;32;34041;-84
2023/09/30 05:57:55;;;;;;;9.95;7.12;;;;;;;19.12;57.54;99659.25;4473423;32;32578;-85
2023/09/30 06:00:28;;;;;;;12.20;7.30;;;;;;;19.07;57.99;99659.31;4452721;32;33813;-87
2023/09/30 06:02:58;;;;;;;13.10;7.30;;;;;;;19.13;58.20;99661.88;4459489;32;35121;-87
2023/09/30 06:05:27;;;;;;;12.07;7.00;;;;;;;19.20;58.16;99655.63;4466755;32;33438;-89
2023/09/30 06:07:54;;;;;;;13.32;7.20;;;;;;;19.33;57.25;99666.84;4450862;32;33484;-87
2023/09/30 06:10:22;;;;;;;10.23;7.22;;;;;;;19.69;55.38;99661.91;4455427;32;34660;-85
2023/09/30 06:12:58;;;;;;;11.45;7.82;;;;;;;19.51;57.04;99667.44;4459440;32;35160;-84
2023/09/30 06:15:26;;;;;;;10.80;6.97;;;;;;;19.53;58.12;99660.41;4439124;32;33820;-85
2023/09/30 06:17:55;;;;;;;11.73;7.32;;;;;;;19.67;58.65;99664.59;4459930;32;34409;-86
2023/09/30 06:20:25;;;;;;;10.13;5.95;;;;;;;19.67;59.34;99664.59;4454118;32;33670;-87
2023/09/30 06:22:55;;;;;;;10.45;5.40;;;;;;;19.71;55.75;99670.66;4453283;32;34805;-86
2023/09/30 06:25:27;;;;;;;12.85;7.07;;;;;;;19.75;57.41;99667.09;4453944;32;33818;-86
2023/09/30 06:27:55;;;;;;;10.60;6.18;;;;;;;19.95;57.82;99668.50;4449320;32;32556;-85
2023/09/30 06:30:29;;;;;;;10.73;5.93;;;;;;;20.15;54.20;99664.66;4451878;32;34809;-86
2023/09/30 06:33:01;;;;;;;15.82;6.65;;;;;;;20.25;54.91;99667.97;4451325;32;33882;-86
2023/09/30 06:35:30;;;;;;;11.70;6.30;;;;;;;20.17;55.27;99668.09;4448920;32;34685;-88
2023/09/30 06:37:58;;;;;;;12.40;6.78;;;;;;;20.31;55.93;99673.13;4449780;32;33223;-86
2023/09/30 06:40:25;;;;;;;12.57;6.40;;;;;;;20.28;54.71;99670.53;4450213;32;34002;-87
2023/09/30 06:42:53;;;;;;;8.93;6.28;;;;;;;20.37;54.58;99672.97;4442409;32;33685;-87
2023/09/30 06:45:21;;;;;;;8.70;6.28;;;;;;;20.44;56.42;99678.16;4451724;32;33997;-85
2023/09/30 06:47:54;;;;;;;14.55;6.87;;;;;;;20.48;56.54;99679.81;4459971;32;32886;-86
2023/09/30 06:50:21;;;;;;;13.57;6.82;;;;;;;20.51;56.98;99685.06;4457637;32;34075;-87
2023/09/30 06:52:49;;;;;;;12.77;7.30;;;;;;;20.56;56.72;99677.94;4467187;32;34043;-85
2023/09/30 06:55:17;;;;;;;14.30;7.53;;;;;;;20.57;57.00;99677.94;4465890;32;33662;-85
2023/09/30 06:57:45;;;;;;;12.75;7.55;;;;;;;20.50;57.30;99685.97;4465557;32;32928;-87
2023/09/30 07:00:14;;;;;;;14.82;7.70;;;;;;;20.59;57.67;99684.00;4467053;32;33401;-86
2023/09/30 07:02:41;;;;;;;13.55;8.20;;;;;;;20.61;58.81;99692.78;4466028;32;33557;-86
2023/09/30 07:05:12;;;;;;;14.02;9.10;;;;;;;20.67;57.24;99683.84;4455167;32;33906;-88
2023/09/30 07:07:42;;;;;;;16.85;9.52;;;;;;;20.80;56.61;99681.87;4450250;32;33056;-85
2023/09/30 07:10:11;;;;;;;12.48;8.80;;;;;;;20.88;56.41;99685.19;4463056;32;34013;-87
2023/09/30 07:12:39;;;;;;;14.98;8.35;;;;;;;20.85;56.79;99685.25;4467140;32;34078;-86
2023/09/30 07:15:08;;;;;;;13.40;8.40;;;;;;;20.85;55.27;99690.53;4467049;32;34616;-86
2023/09/30 07:17:36;;;;;;;14.50;8.90;;;;;;;21.07;53.77;99688.31;4465949;32;32713;-84
2023/09/30 07:20:05;;;;;;;12.32;9.20;;;;;;;21.05;54.58;99688.31;4452884;32;33854;-85
2023/09/30 07:22:34;;;;;;;17.90;9.95;;;;;;;21.02;53.72;99691.03;4454058;32;35380;-85
2023/09/30 07:25:19;;;;;;;16.83;9.45;;;;;;;21.01;53.90;99701.63;4451873;32;33374;-84
2023/09/30 07:27:47;;;;;;;18.20;10.48;;;;;;;21.00;53.63;99697.25;4461934;32;34420;-85
2023/09/30 07:30:15;;;;;;;14.70;9.23;;;;;;;21.23;53.11;99694.97;4465589;32;33769;-86
2023/09/30 07:32:44;;;;;;;16.75;9.55;;;;;;;21.25;53.41;99701.09;4466536;32;33803;-86
2023/09/30 07:35:15;;;;;;;19.58;8.98;;;;;;;21.16;53.38;99705.69;4466835;32;33503;-86
2023/09/30 07:37:43;;;;;;;16.98;8.85;;;;;;;21.34;52.15;99695.63;4443634;32;32794;-86
2023/09/30 07:40:12;;;;;;;12.30;8.02;;;;;;;21.36;53.30;99701.72;4452843;32;33251;-86
2023/09/30 07:42:40;;;;;;;13.77;8.40;;;;;;;21.37;51.81;99706.13;4465284;32;34187;-85
2023/09/30 07:45:08;;;;;;;14.00;7.15;;;;;;;21.58;51.40;99704.75;4466739;32;34473;-85
2023/09/30 07:47:36;;;;;;;12.37;5.70;;;;;;;21.88;48.06;99697.00;4452255;32;33312;-86
2023/09/30 07:50:09;;;;;;;14.07;5.97;;;;;;;21.69;47.36;99704.50;4465390;32;33841;-84
2023/09/30 07:52:42;;;;;;;10.82;6.15;;;;;;;21.60;47.25;99708.22;4466671;32;34609;-84
2023/09/30 07:55:10;;;;;;;12.43;6.45;;;;;;;22.15;45.09;99706.00;4462464;32;34485;-85
2023/09/30 07:57:41;;;;;;;14.87;6.10;;;;;;;21.70;46.10;99708.84;4449979;32;34158;-85
2023/09/30 08:00:14;;;;;;;8.63;5.25;;;;;;;21.74;45.75;99705.25;4451352;32;33719;-86
2023/09/30 08:02:43;;;;;;;9.15;5.80;;;;;;;21.62;45.49;99705.53;4449926;32;34106;-85
2023/09/30 08:05:11;;;;;;;8.88;5.30;;;;;;;21.50;46.19;99708.47;4451303;32;33242;-85
2023/09/30 08:07:41;;;;;;;9.93;5.68;;;;;;;21.45;46.81;99713.00;4451013;32;33259;-85
2023/09/30 08:10:13;;;;;;;11.12;5.80;;;;;;;21.70;46.66;99714.13;4450936;32;33902;-84
2023/09/30 08:12:41;;;;;;;8.63;5.72;;;;;;;21.76;47.52;99714.00;4453231;32;34813;-86
2023/09/30 08:15:12;;;;;;;11.60;6.40;;;;;;;21.80;47.23;99720.06;4451924;32;33799;-85
2023/09/30 08:17:40;;;;;;;9.25;5.80;;;;;;;21.76;47.38;99721.06;4452677;32;34171;-84
2023/09/30 08:20:09;;;;;;;14.77;6.05;;;;;;;21.61;48.66;99724.91;4451483;32;34729;-85
2023/09/30 08:22:37;;;;;;;11.12;5.93;;;;;;;21.78;48.66;99728.03;4453745;32;33815;-85
2023/09/30 08:25:06;;;;;;;14.75;6.12;;;;;;;21.98;48.57;99721.41;4464159;32;33846;-83
2023/09/30 08:27:38;;;;;;;12.10;6.22;;;;;;;21.78;48.31;99724.50;4438118;32;31480;-87
2023/09/30 08:30:07;;;;;;;10.27;6.32;;;;;;;21.72;49.16;99717.63;4464966;32;32515;-86
2023/09/30 08:32:35;;;;;;;10.45;5.93;;;;;;;21.93;48.48;99720.63;4484203;32;34973;-87
2023/09/30 08:35:04;;;;;;;9.52;6.28;;;;;;;21.82;47.98;99712.97;4484025;32;33733;-86
2023/09/30 08:37:31;;;;;;;11.45;6.45;;;;;;;22.00;48.06;99706.38;4467188;32;34257;-87
2023/09/30 08:39:59;;;;;;;11.02;6.60;;;;;;;21.82;48.65;99703.31;4454146;32;34054;-87
2023/09/30 08:42:32;;;;;;;9.90;6.35;;;;;;;21.60;48.61;99705.59;4478609;32;35167;-88
2023/09/30 08:45:01;;;;;;;17.05;7.47;;;;;;;21.74;48.11;99707.88;4459528;32;34628;-86
2023/09/30 08:47:30;;;;;;;10.93;6.10;;;;;;;22.20;48.00;99693.59;4458484;32;32309;-87
2023/09/30 08:50:05;;;;;;;13.20;6.18;;;;;;;22.08;48.48;99693.84;4467932;32;34132;-87
2023/09/30 08:52:35;;;;;;;12.75;7.20;;;;;;;22.18;48.16;99699.78;4468827;32;34839;-86
2023/09/30 08:55:08;;;;;;;12.95;7.10;;;;;;;22.04;49.21;99705.38;4468024;32;33717;-86
2023/09/30 08:57:41;;;;;;;14.10;7.12;;;;;;;22.43;49.11;99706.16;4469994;32;33629;-88
2023/09/30 09:00:12;;;;;;;10.35;6.50;;;;;;;21.82;49.74;99708.59;4483573;32;33542;-87
2023/09/30 09:02:42;;;;;;;13.25;8.60;;;;;;;22.03;49.48;99712.44;4469334;32;34722;-86
2023/09/30 09:05:10;;;;;;;12.43;7.45;;;;;;;21.76;50.21;99718.41;4469447;32;33947;-85
2023/09/30 09:07:38;;;;;;;12.65;7.22;;;;;;;22.07;49.57;99707.97;4469785;32;33452;-88
2023/09/30 09:10:08;;;;;;;11.02;7.45;;;;;;;21.98;49.44;99705.56;4483862;32;33803;-85
2023/09/30 09:12:38;;;;;;;13.65;7.80;;;;;;;21.85;49.89;99708.47;4484146;32;33668;-86
2023/09/30 09:15:08;;;;;;;14.65;7.95;;;;;;;21.83;50.28;99709.44;4483458;32;33083;-84
2023/09/30 09:17:41;;;;;;;14.85;8.30;;;;;;;21.81;50.17;99714.75;4469607;32;34281;-85
2023/09/30 09:20:20;;;;;;;10.85;7.65;;;;;;;21.82;51.37;99727.06;4482976;32;34454;-86
2023/09/30 09:22:54;;;;;;;12.05;7.95;;;;;;;21.73;50.64;99721.13;4456207;32;33526;-85
2023/09/30 09:25:23;;;;;;;15.55;7.72;;;;;;;21.91;50.37;99714.53;4468376;32;33994;-87
2023/09/30 09:27:54;;;;;;;11.15;7.68;;;;;;;21.94;51.19;99723.25;4469702;32;33355;-87
2023/09/30 09:30:27;;;;;;;15.15;6.60;;;;;;;21.77;52.14;99710.44;4483171;32;33552;-86
2023/09/30 09:32:55;;;;;;;11.07;7.05;;;;;;;21.67;51.12;99703.69;4454645;32;34080;-87
2023/09/30 09:35:25;;;;;;;12.93;7.62;;;;;;;21.58;51.93;99710.03;4440703;32;33284;-86
2023/09/30 09:38:03;;;;;;;13.40;7.68;;;;;;;21.46;52.36;99698.91;4467648;32;33657;-86
2023/09/30 09:40:35;;;;;;;13.80;7.62;;;;;;;21.70;51.72;99708.84;4453675;32;33588;-86
2023/09/30 09:43:05;;;;;;;12.75;7.28;;;;;;;22.07;50.64;99697.41;4467814;32;33965;-86
2023/09/30 09:45:35;;;;;;;15.05;6.97;;;;;;;21.43;52.38;99696.31;4467641;32;34564;-86
2023/09/30 09:48:04;;;;;;;11.02;7.50;;;;;;;21.49;52.48;99701.47;4453423;32;33104;-86
2023/09/30 09:50:32;;;;;;;10.98;7.37;;;;;;;21.87;50.77;99688.22;4467853;32;33790;-86
2023/09/30 09:53:00;;;;;;;15.05;7.47;;;;;;;21.86;52.37;99694.41;4467613;32;33728;-86
2023/09/30 09:55:28;;;;;;;10.85;7.15;;;;;;;21.93;51.64;99689.81;4467864;32;34100;-86
2023/09/30 09:57:56;;;;;;;12.10;6.87;;;;;;;22.25;50.15;99690.81;4468157;32;33306;-86
2023/09/30 10:00:25;;;;;;;9.15;6.97;;;;;;;21.81;51.09;99693.63;4440504;32;33440;-87
2023/09/30 10:02:53;;;;;;;15.95;8.57;;;;;;;22.01;51.15;99693.16;4453789;32;34143;-87
2023/09/30 10:05:21;;;;;;;10.05;6.35;;;;;;;21.99;49.83;99696.72;4453559;32;34597;-87
2023/09/30 10:08:00;;;;;;;11.32;6.72;;;;;;;22.20;49.89;99690.94;4470188;32;33213;-87
2023/09/30 10:10:28;;;;;;;10.75;7.25;;;;;;;22.33;50.65;99689.69;4455966;32;32477;-86
2023/09/30 10:12:55;;;;;;;14.10;6.65;;;;;;;22.34;50.71;99682.63;4456025;32;33743;-85
2023/09/30 10:15:26;;;;;;;13.57;6.20;;;;;;;21.84;50.50;99690.91;4469033;32;34273;-86
2023/09/30 10:17:58;;;;;;;14.35;6.90;;;;;;;22.41;50.08;99680.69;4478001;32;33113;-87
2023/09/30 10:20:31;;;;;;;12.10;7.30;;;;;;;23.00;48.81;99675.53;4440742;32;32675;-87
2023/09/30 10:23:20;;;;;;;11.80;6.87;;;;;;;22.63;48.07;99676.53;4440689;32;33319;-86
2023/09/30 10:25:49;;;;;;;12.18;6.95;;;;;;;22.69;49.77;99668.47;4457112;32;32814;-86
2023/09/30 10:28:41;;;;;;;15.18;7.47;;;;;;;22.48;49.88;99671.69;4456463;32;33544;-85
2023/09/30 10:31:19;;;;;;;11.52;6.95;;;;;;;22.52;49.95;99668.06;4468598;32;33688;-85
2023/09/30 10:33:59;;;;;;;12.75;7.30;;;;;;;22.36;50.44;99683.47;4468948;32;33867;-86
2023/09/30 10:36:32;;;;;;;12.10;7.20;;;;;;;22.36;50.32;99680.81;4467742;32;34149;-86
2023/09/30 10:39:01;;;;;;;11.77;6.60;;;;;;;22.22;50.55;99677.69;4467899;32;33820;-86
2023/09/30 10:41:41;;;;;;;13.65;7.45;;;;;;;22.28;50.81;99678.38;4453748;32;33458;-87
2023/09/30 10:44:27;;;;;;;12.82;6.82;;;;;;;22.21;51.42;99674.19;4473509;32;35140;-86
2023/09/30 10:46:57;;;;;;;14.77;7.68;;;;;;;22.17;51.40;99674.31;4483108;32;33817;-86
2023/09/30 10:49:24;;;;;;;13.32;7.50;;;;;;;22.12;51.12;99677.00;4473145;32;33551;-86
2023/09/30 10:52:04;;;;;;;10.55;7.20;;;;;;;22.15;51.60;99669.03;4482733;32;33634;-85
2023/09/30 10:54:33;;;;;;;12.27;7.05;;;;;;;22.16;51.68;99669.91;4481769;32;33485;-85
2023/09/30 10:57:00;;;;;;;9.90;7.28;;;;;;;22.03;52.41;99670.19;4482815;32;34387;-87
2023/09/30 10:59:30;;;;;;;15.15;7.62;;;;;;;22.13;51.96;99672.63;4455873;32;31885;-85
2023/09/30 11:01:58;;;;;;;13.30;8.10;;;;;;;22.01;52.02;99668.50;4483000;32;34041;-86
2023/09/30 11:04:28;;;;;;;13.80;9.02;;;;;;;22.00;52.91;99659.72;4468823;32;34040;-87
2023/09/30 11:06:56;;;;;;;14.68;8.15;;;;;;;21.61;53.05;99661.59;4482949;32;33823;-85
2023/09/30 11:09:24;;;;;;;13.45;8.75;;;;;;;21.75;52.88;99664.78;4478198;32;33894;-86
2023/09/30 11:11:53;;;;;;;14.23;8.70;;;;;;;21.54;53.51;99670.56;4482462;32;33722;-86
2023/09/30 11:14:30;;;;;;;12.27;8.52;;;;;;;21.80;53.48;99667.28;4460981;32;33708;-86
2023/09/30 11:17:01;;;;;;;18.10;9.63;;;;;;;21.75;54.19;99672.69;4452721;32;34689;-86
2023/09/30 11:19:37;;;;;;;16.50;9.07;;;;;;;21.67;54.49;99671.13;4451719;32;33446;-86
2023/09/30 11:22:05;;;;;;;14.00;9.13;;;;;;;21.27;55.52;99669.41;4466006;32;33753;-86
2023/09/30 11:24:37;;;;;;;13.23;8.60;;;;;;;21.43;55.69;99669.94;4451597;32;33907;-85
2023/09/30 11:27:05;;;;;;;12.63;8.63;;;;;;;21.31;56.34;99666.66;4465566;32;33999;-85
2023/09/30 11:29:32;;;;;;;17.35;10.13;;;;;;;21.28;56.65;99666.72;4465952;32;34067;-87
2023/09/30 11:32:01;;;;;;;17.37;9.52;;;;;;;21.20;56.13;99668.66;4438972;32;34568;-85
2023/09/30 11:34:37;;;;;;;12.73;9.07;;;;;;;21.37;56.15;99673.59;4462714;32;35197;-85
2023/09/30 11:37:05;;;;;;;;;;;;;;;21.15;56.64;99670.56;4482222;32;34210;-85